sensor_id;sensor_type;location;lat;lon;timestamp;P1;durP1;ratioP1;P2;durP2;ratioP2
82637;SDS011;72318;36.628;-121.932;2023-09-19T00:00:45;5.18;;;1.80;;
82637;SDS011;72318;36.628;-121.932;2023-09-19T00:05:41;5.13;;;1.90;;
82637;SDS011;72318;36.628;-121.932;2023-09-19T00:08:10;8.48;;;2.45;;
82637;SDS011;72318;36.628;-121.932;2023-09-19T00:10:38;13.93;;;3.05;;
82637;SDS011;72318;36.628;-121.932;2023-09-19T00:13:06;6.40;;;2.33;;
82637;SDS011;72318;36.628;-121.932;2023-09-19T00:15:37;7.82;;;1.92;;
82637;SDS011;72318;36.628;-121.932;2023-09-19T00:18:06;4.10;;;1.83;;
82637;SDS011;72318;36.628;-121.932;2023-09-19T00:20:37;5.30;;;1.95;;
82637;SDS011;72318;36.628;-121.932;2023-09-19T00:23:04;4.25;;;1.95;;
82637;SDS011;72318;36.628;-121.932;2023-09-19T00:25:31;3.80;;;1.85;;
82637;SDS011;72318;36.628;-121.932;2023-09-19T00:27:57;4.82;;;2.03;;
82637;SDS011;72318;36.628;-121.932;2023-09-19T00:30:23;6.63;;;1.98;;
82637;SDS011;72318;36.628;-121.932;2023-09-19T00:32:50;6.28;;;1.88;;
82637;SDS011;72318;36.628;-121.932;2023-09-19T00:35:20;5.60;;;1.98;;
82637;SDS011;72318;36.628;-121.932;2023-09-19T00:37:49;3.90;;;1.52;;
82637;SDS011;72318;36.628;-121.932;2023-09-19T00:40:16;5.40;;;2.20;;
82637;SDS011;72318;36.628;-121.932;2023-09-19T00:42:43;6.38;;;2.05;;
82637;SDS011;72318;36.628;-121.932;2023-09-19T00:45:10;7.97;;;2.08;;
82637;SDS011;72318;36.628;-121.932;2023-09-19T00:47:41;7.57;;;2.72;;
82637;SDS011;72318;36.628;-121.932;2023-09-19T00:50:11;6.88;;;2.28;;
82637;SDS011;72318;36.628;-121.932;2023-09-19T00:52:40;4.97;;;1.90;;
82637;SDS011;72318;36.628;-121.932;2023-09-19T00:55:08;6.38;;;3.05;;
82637;SDS011;72318;36.628;-121.932;2023-09-19T00:57:36;5.82;;;2.60;;
82637;SDS011;72318;36.628;-121.932;2023-09-19T01:00:04;5.45;;;2.35;;
82637;SDS011;72318;36.628;-121.932;2023-09-19T01:02:41;6.85;;;2.38;;
82637;SDS011;72318;36.628;-121.932;2023-09-19T01:05:09;8.07;;;2.25;;
82637;SDS011;72318;36.628;-121.932;2023-09-19T01:07:35;12.77;;;3.28;;
82637;SDS011;72318;36.628;-121.932;2023-09-19T01:26:14;7.85;;;2.55;;
82637;SDS011;72318;36.628;-121.932;2023-09-19T01:31:34;6.78;;;3.13;;
82637;SDS011;72318;36.628;-121.932;2023-09-19T01:34:03;7.28;;;3.28;;
82637;SDS011;72318;36.628;-121.932;2023-09-19T01:36:31;9.63;;;3.72;;
82637;SDS011;72318;36.628;-121.932;2023-09-19T01:39:02;6.25;;;2.95;;
82637;SDS011;72318;36.628;-121.932;2023-09-19T01:47:19;8.43;;;3.20;;
82637;SDS011;72318;36.628;-121.932;2023-09-19T01:50:07;7.00;;;3.28;;
82637;SDS011;72318;36.628;-121.932;2023-09-19T01:52:48;7.03;;;2.88;;
82637;SDS011;72318;36.628;-121.932;2023-09-19T01:55:20;8.95;;;3.30;;
82637;SDS011;72318;36.628;-121.932;2023-09-19T02:00:18;12.05;;;3.38;;
82637;SDS011;72318;36.628;-121.932;2023-09-19T02:02:47;11.63;;;4.32;;
82637;SDS011;72318;36.628;-121.932;2023-09-19T02:05:21;11.27;;;4.10;;
82637;SDS011;72318;36.628;-121.932;2023-09-19T02:07:49;10.98;;;3.35;;
82637;SDS011;72318;36.628;-121.932;2023-09-19T02:10:18;16.05;;;3.80;;
82637;SDS011;72318;36.628;-121.932;2023-09-19T02:12:44;8.50;;;2.70;;
82637;SDS011;72318;36.628;-121.932;2023-09-19T02:15:10;12.20;;;3.45;;
82637;SDS011;72318;36.628;-121.932;2023-09-19T02:17:37;17.38;;;3.72;;
82637;SDS011;72318;36.628;-121.932;2023-09-19T02:20:03;11.93;;;3.90;;
82637;SDS011;72318;36.628;-121.932;2023-09-19T02:22:35;17.00;;;3.83;;
82637;SDS011;72318;36.628;-121.932;2023-09-19T02:25:01;16.98;;;3.75;;
82637;SDS011;72318;36.628;-121.932;2023-09-19T02:27:30;14.32;;;3.80;;
82637;SDS011;72318;36.628;-121.932;2023-09-19T02:29:56;19.30;;;4.13;;
82637;SDS011;72318;36.628;-121.932;2023-09-19T02:32:23;13.90;;;3.03;;
82637;SDS011;72318;36.628;-121.932;2023-09-19T02:34:49;12.10;;;3.47;;
82637;SDS011;72318;36.628;-121.932;2023-09-19T02:37:17;19.17;;;4.30;;
82637;SDS011;72318;36.628;-121.932;2023-09-19T02:39:44;14.32;;;3.90;;
82637;SDS011;72318;36.628;-121.932;2023-09-19T02:42:11;19.17;;;4.05;;
82637;SDS011;72318;36.628;-121.932;2023-09-19T02:44:37;17.30;;;3.88;;
82637;SDS011;72318;36.628;-121.932;2023-09-19T02:47:03;19.25;;;4.25;;
82637;SDS011;72318;36.628;-121.932;2023-09-19T02:49:30;12.50;;;3.38;;
82637;SDS011;72318;36.628;-121.932;2023-09-19T02:51:56;14.63;;;4.15;;
82637;SDS011;72318;36.628;-121.932;2023-09-19T02:54:24;11.75;;;3.47;;
82637;SDS011;72318;36.628;-121.932;2023-09-19T02:56:50;13.63;;;2.97;;
82637;SDS011;72318;36.628;-121.932;2023-09-19T02:59:19;11.02;;;4.15;;
82637;SDS011;72318;36.628;-121.932;2023-09-19T03:01:45;7.18;;;3.28;;
82637;SDS011;72318;36.628;-121.932;2023-09-19T03:04:13;8.00;;;2.83;;
82637;SDS011;72318;36.628;-121.932;2023-09-19T03:06:45;7.35;;;2.53;;
82637;SDS011;72318;36.628;-121.932;2023-09-19T03:09:11;6.90;;;2.78;;
82637;SDS011;72318;36.628;-121.932;2023-09-19T03:11:39;9.68;;;3.45;;
82637;SDS011;72318;36.628;-121.932;2023-09-19T03:14:07;10.55;;;4.07;;
82637;SDS011;72318;36.628;-121.932;2023-09-19T03:16:35;11.27;;;4.10;;
82637;SDS011;72318;36.628;-121.932;2023-09-19T03:19:03;11.90;;;4.47;;
82637;SDS011;72318;36.628;-121.932;2023-09-19T03:21:30;14.90;;;4.40;;
82637;SDS011;72318;36.628;-121.932;2023-09-19T03:23:56;13.60;;;4.53;;
82637;SDS011;72318;36.628;-121.932;2023-09-19T03:26:22;15.18;;;4.10;;
82637;SDS011;72318;36.628;-121.932;2023-09-19T03:28:51;14.18;;;4.47;;
82637;SDS011;72318;36.628;-121.932;2023-09-19T03:31:18;14.95;;;4.53;;
82637;SDS011;72318;36.628;-121.932;2023-09-19T03:33:44;9.90;;;3.28;;
82637;SDS011;72318;36.628;-121.932;2023-09-19T03:36:10;12.05;;;4.05;;
82637;SDS011;72318;36.628;-121.932;2023-09-19T03:38:38;9.95;;;4.35;;
82637;SDS011;72318;36.628;-121.932;2023-09-19T03:41:04;7.82;;;3.10;;
82637;SDS011;72318;36.628;-121.932;2023-09-19T03:43:33;6.43;;;2.80;;
82637;SDS011;72318;36.628;-121.932;2023-09-19T03:46:03;5.95;;;2.95;;
82637;SDS011;72318;36.628;-121.932;2023-09-19T03:50:56;9.05;;;3.45;;
82637;SDS011;72318;36.628;-121.932;2023-09-19T03:53:22;8.10;;;3.45;;
82637;SDS011;72318;36.628;-121.932;2023-09-19T03:55:48;4.18;;;3.40;;
82637;SDS011;72318;36.628;-121.932;2023-09-19T03:58:15;7.40;;;3.10;;
82637;SDS011;72318;36.628;-121.932;2023-09-19T04:00:41;7.78;;;3.15;;
82637;SDS011;72318;36.628;-121.932;2023-09-19T04:03:07;8.35;;;3.30;;
82637;SDS011;72318;36.628;-121.932;2023-09-19T04:05:34;7.40;;;3.03;;
82637;SDS011;72318;36.628;-121.932;2023-09-19T04:08:00;7.18;;;3.28;;
82637;SDS011;72318;36.628;-121.932;2023-09-19T04:10:26;8.20;;;2.95;;
82637;SDS011;72318;36.628;-121.932;2023-09-19T04:12:54;7.25;;;3.92;;
82637;SDS011;72318;36.628;-121.932;2023-09-19T04:15:21;7.85;;;4.03;;
82637;SDS011;72318;36.628;-121.932;2023-09-19T04:17:49;9.00;;;3.58;;
82637;SDS011;72318;36.628;-121.932;2023-09-19T04:20:16;6.47;;;3.75;;
82637;SDS011;72318;36.628;-121.932;2023-09-19T04:22:45;6.57;;;3.05;;
82637;SDS011;72318;36.628;-121.932;2023-09-19T04:25:12;6.47;;;2.70;;
82637;SDS011;72318;36.628;-121.932;2023-09-19T04:27:38;6.43;;;3.50;;
82637;SDS011;72318;36.628;-121.932;2023-09-19T04:30:06;6.88;;;3.70;;
82637;SDS011;72318;36.628;-121.932;2023-09-19T04:32:37;6.25;;;3.03;;
82637;SDS011;72318;36.628;-121.932;2023-09-19T04:35:08;7.30;;;3.63;;
82637;SDS011;72318;36.628;-121.932;2023-09-19T04:37:38;6.05;;;3.60;;
82637;SDS011;72318;36.628;-121.932;2023-09-19T04:40:07;8.60;;;3.58;;
82637;SDS011;72318;36.628;-121.932;2023-09-19T04:42:43;6.45;;;3.63;;
82637;SDS011;72318;36.628;-121.932;2023-09-19T04:45:10;7.38;;;3.80;;
82637;SDS011;72318;36.628;-121.932;2023-09-19T04:47:36;4.82;;;3.22;;
82637;SDS011;72318;36.628;-121.932;2023-09-19T04:50:05;6.35;;;3.35;;
82637;SDS011;72318;36.628;-121.932;2023-09-19T04:52:41;6.45;;;3.67;;
82637;SDS011;72318;36.628;-121.932;2023-09-19T04:55:12;6.57;;;3.63;;
82637;SDS011;72318;36.628;-121.932;2023-09-19T04:57:43;7.40;;;4.63;;
82637;SDS011;72318;36.628;-121.932;2023-09-19T05:00:13;6.95;;;3.60;;
82637;SDS011;72318;36.628;-121.932;2023-09-19T05:02:41;5.30;;;3.13;;
82637;SDS011;72318;36.628;-121.932;2023-09-19T05:05:08;7.53;;;3.45;;
82637;SDS011;72318;36.628;-121.932;2023-09-19T05:07:40;7.85;;;3.15;;
82637;SDS011;72318;36.628;-121.932;2023-09-19T05:10:07;8.88;;;4.68;;
82637;SDS011;72318;36.628;-121.932;2023-09-19T05:12:34;7.60;;;3.75;;
82637;SDS011;72318;36.628;-121.932;2023-09-19T05:15:04;8.68;;;4.03;;
82637;SDS011;72318;36.628;-121.932;2023-09-19T05:17:35;8.32;;;3.78;;
82637;SDS011;72318;36.628;-121.932;2023-09-19T05:20:02;7.45;;;3.67;;
82637;SDS011;72318;36.628;-121.932;2023-09-19T05:22:34;8.45;;;4.07;;
82637;SDS011;72318;36.628;-121.932;2023-09-19T05:25:04;7.45;;;3.42;;
82637;SDS011;72318;36.628;-121.932;2023-09-19T05:27:33;10.77;;;4.28;;
82637;SDS011;72318;36.628;-121.932;2023-09-19T05:29:59;5.82;;;3.30;;
82637;SDS011;72318;36.628;-121.932;2023-09-19T05:32:26;8.02;;;3.35;;
82637;SDS011;72318;36.628;-121.932;2023-09-19T05:34:52;12.50;;;3.58;;
82637;SDS011;72318;36.628;-121.932;2023-09-19T05:37:19;12.95;;;3.45;;
82637;SDS011;72318;36.628;-121.932;2023-09-19T05:39:45;7.85;;;3.53;;
82637;SDS011;72318;36.628;-121.932;2023-09-19T05:42:12;10.18;;;3.60;;
82637;SDS011;72318;36.628;-121.932;2023-09-19T05:44:38;7.63;;;4.60;;
82637;SDS011;72318;36.628;-121.932;2023-09-19T05:47:06;10.63;;;3.92;;
82637;SDS011;72318;36.628;-121.932;2023-09-19T05:49:35;7.85;;;4.25;;
82637;SDS011;72318;36.628;-121.932;2023-09-19T05:52:06;9.65;;;4.57;;
82637;SDS011;72318;36.628;-121.932;2023-09-19T05:54:33;7.47;;;3.63;;
82637;SDS011;72318;36.628;-121.932;2023-09-19T05:57:00;8.90;;;3.60;;
82637;SDS011;72318;36.628;-121.932;2023-09-19T05:59:29;9.48;;;3.70;;
82637;SDS011;72318;36.628;-121.932;2023-09-19T06:01:55;9.05;;;3.67;;
82637;SDS011;72318;36.628;-121.932;2023-09-19T06:04:21;11.20;;;3.30;;
82637;SDS011;72318;36.628;-121.932;2023-09-19T06:06:48;8.15;;;3.03;;
82637;SDS011;72318;36.628;-121.932;2023-09-19T06:09:14;9.27;;;3.60;;
82637;SDS011;72318;36.628;-121.932;2023-09-19T06:11:43;10.68;;;3.35;;
82637;SDS011;72318;36.628;-121.932;2023-09-19T06:14:10;9.10;;;3.28;;
82637;SDS011;72318;36.628;-121.932;2023-09-19T06:16:37;5.57;;;3.63;;
82637;SDS011;72318;36.628;-121.932;2023-09-19T06:21:34;8.10;;;2.97;;
82637;SDS011;72318;36.628;-121.932;2023-09-19T06:24:00;10.10;;;3.35;;
82637;SDS011;72318;36.628;-121.932;2023-09-19T06:26:26;8.05;;;3.55;;
82637;SDS011;72318;36.628;-121.932;2023-09-19T06:28:52;12.50;;;3.55;;
82637;SDS011;72318;36.628;-121.932;2023-09-19T06:31:21;7.60;;;3.15;;
82637;SDS011;72318;36.628;-121.932;2023-09-19T06:33:51;6.20;;;2.92;;
82637;SDS011;72318;36.628;-121.932;2023-09-19T06:36:18;6.97;;;3.22;;
82637;SDS011;72318;36.628;-121.932;2023-09-19T06:38:45;5.78;;;2.70;;
82637;SDS011;72318;36.628;-121.932;2023-09-19T06:41:12;7.13;;;3.42;;
82637;SDS011;72318;36.628;-121.932;2023-09-19T06:43:38;6.22;;;3.25;;
82637;SDS011;72318;36.628;-121.932;2023-09-19T06:46:04;5.93;;;2.45;;
82637;SDS011;72318;36.628;-121.932;2023-09-19T06:48:32;7.50;;;3.33;;
82637;SDS011;72318;36.628;-121.932;2023-09-19T06:50:59;7.30;;;3.47;;
82637;SDS011;72318;36.628;-121.932;2023-09-19T06:53:33;6.68;;;3.03;;
82637;SDS011;72318;36.628;-121.932;2023-09-19T06:56:01;9.25;;;3.67;;
82637;SDS011;72318;36.628;-121.932;2023-09-19T06:58:27;6.40;;;3.30;;
82637;SDS011;72318;36.628;-121.932;2023-09-19T07:00:54;7.18;;;3.38;;
82637;SDS011;72318;36.628;-121.932;2023-09-19T07:03:21;7.35;;;2.72;;
82637;SDS011;72318;36.628;-121.932;2023-09-19T07:05:51;5.20;;;2.70;;
82637;SDS011;72318;36.628;-121.932;2023-09-19T07:08:18;6.22;;;3.38;;
82637;SDS011;72318;36.628;-121.932;2023-09-19T07:10:45;5.82;;;2.58;;
82637;SDS011;72318;36.628;-121.932;2023-09-19T07:13:14;8.02;;;2.47;;
82637;SDS011;72318;36.628;-121.932;2023-09-19T07:15:44;6.47;;;2.83;;
82637;SDS011;72318;36.628;-121.932;2023-09-19T07:18:15;8.82;;;3.10;;
82637;SDS011;72318;36.628;-121.932;2023-09-19T07:20:43;8.82;;;3.05;;
82637;SDS011;72318;36.628;-121.932;2023-09-19T07:23:17;6.72;;;3.35;;
82637;SDS011;72318;36.628;-121.932;2023-09-19T07:25:47;7.43;;;3.92;;
82637;SDS011;72318;36.628;-121.932;2023-09-19T07:28:14;10.55;;;3.25;;
82637;SDS011;72318;36.628;-121.932;2023-09-19T07:30:41;6.95;;;3.17;;
82637;SDS011;72318;36.628;-121.932;2023-09-19T07:33:07;5.80;;;2.80;;
82637;SDS011;72318;36.628;-121.932;2023-09-19T07:35:36;7.15;;;3.35;;
82637;SDS011;72318;36.628;-121.932;2023-09-19T07:38:05;5.05;;;2.50;;
82637;SDS011;72318;36.628;-121.932;2023-09-19T07:40:33;6.55;;;3.58;;
82637;SDS011;72318;36.628;-121.932;2023-09-19T07:43:02;10.27;;;3.58;;
82637;SDS011;72318;36.628;-121.932;2023-09-19T07:45:30;6.65;;;3.30;;
82637;SDS011;72318;36.628;-121.932;2023-09-19T07:47:57;8.88;;;3.42;;
82637;SDS011;72318;36.628;-121.932;2023-09-19T07:50:24;6.78;;;2.70;;
82637;SDS011;72318;36.628;-121.932;2023-09-19T07:52:51;7.53;;;2.60;;
82637;SDS011;72318;36.628;-121.932;2023-09-19T07:55:21;9.05;;;3.75;;
82637;SDS011;72318;36.628;-121.932;2023-09-19T07:57:54;6.63;;;3.15;;
82637;SDS011;72318;36.628;-121.932;2023-09-19T08:00:20;11.30;;;3.10;;
82637;SDS011;72318;36.628;-121.932;2023-09-19T08:02:48;9.27;;;2.97;;
82637;SDS011;72318;36.628;-121.932;2023-09-19T08:05:14;6.57;;;3.00;;
82637;SDS011;72318;36.628;-121.932;2023-09-19T08:07:41;8.48;;;3.97;;
82637;SDS011;72318;36.628;-121.932;2023-09-19T08:10:14;8.80;;;3.25;;
82637;SDS011;72318;36.628;-121.932;2023-09-19T08:12:44;6.85;;;3.28;;
82637;SDS011;72318;36.628;-121.932;2023-09-19T08:15:13;5.78;;;2.28;;
82637;SDS011;72318;36.628;-121.932;2023-09-19T08:17:42;9.55;;;3.03;;
82637;SDS011;72318;36.628;-121.932;2023-09-19T08:20:09;6.05;;;2.35;;
82637;SDS011;72318;36.628;-121.932;2023-09-19T08:22:48;6.40;;;3.00;;
82637;SDS011;72318;36.628;-121.932;2023-09-19T08:25:16;9.95;;;3.00;;
82637;SDS011;72318;36.628;-121.932;2023-09-19T08:27:45;11.57;;;3.05;;
82637;SDS011;72318;36.628;-121.932;2023-09-19T08:30:20;5.30;;;2.97;;
82637;SDS011;72318;36.628;-121.932;2023-09-19T08:32:50;6.13;;;2.95;;
82637;SDS011;72318;36.628;-121.932;2023-09-19T08:35:16;3.95;;;2.13;;
82637;SDS011;72318;36.628;-121.932;2023-09-19T08:37:42;9.77;;;3.10;;
82637;SDS011;72318;36.628;-121.932;2023-09-19T08:40:11;5.55;;;3.33;;
82637;SDS011;72318;36.628;-121.932;2023-09-19T08:42:53;5.88;;;3.20;;
82637;SDS011;72318;36.628;-121.932;2023-09-19T08:45:21;7.20;;;3.13;;
82637;SDS011;72318;36.628;-121.932;2023-09-19T08:50:52;9.90;;;3.40;;
82637;SDS011;72318;36.628;-121.932;2023-09-19T08:56:03;7.60;;;3.70;;
82637;SDS011;72318;36.628;-121.932;2023-09-19T08:58:38;9.02;;;3.50;;
82637;SDS011;72318;36.628;-121.932;2023-09-19T09:01:10;6.47;;;3.22;;
82637;SDS011;72318;36.628;-121.932;2023-09-19T09:03:39;12.98;;;4.18;;
82637;SDS011;72318;36.628;-121.932;2023-09-19T09:06:12;5.97;;;2.80;;
82637;SDS011;72318;36.628;-121.932;2023-09-19T09:08:41;7.95;;;3.83;;
82637;SDS011;72318;36.628;-121.932;2023-09-19T09:11:10;7.90;;;3.75;;
82637;SDS011;72318;36.628;-121.932;2023-09-19T09:13:36;8.10;;;3.33;;
82637;SDS011;72318;36.628;-121.932;2023-09-19T09:16:04;7.10;;;2.90;;
82637;SDS011;72318;36.628;-121.932;2023-09-19T09:18:30;7.05;;;3.22;;
82637;SDS011;72318;36.628;-121.932;2023-09-19T09:20:56;7.50;;;2.95;;
82637;SDS011;72318;36.628;-121.932;2023-09-19T09:23:22;6.93;;;2.60;;
82637;SDS011;72318;36.628;-121.932;2023-09-19T09:25:55;9.23;;;3.75;;
82637;SDS011;72318;36.628;-121.932;2023-09-19T09:28:23;6.10;;;2.92;;
82637;SDS011;72318;36.628;-121.932;2023-09-19T09:30:51;6.53;;;2.60;;
82637;SDS011;72318;36.628;-121.932;2023-09-19T09:33:18;9.18;;;2.60;;
82637;SDS011;72318;36.628;-121.932;2023-09-19T09:38:29;8.00;;;3.70;;
82637;SDS011;72318;36.628;-121.932;2023-09-19T09:41:08;7.75;;;2.72;;
82637;SDS011;72318;36.628;-121.932;2023-09-19T09:43:36;6.15;;;2.55;;
82637;SDS011;72318;36.628;-121.932;2023-09-19T09:46:15;5.68;;;2.50;;
82637;SDS011;72318;36.628;-121.932;2023-09-19T09:51:43;7.68;;;2.58;;
82637;SDS011;72318;36.628;-121.932;2023-09-19T09:54:23;4.63;;;2.50;;
82637;SDS011;72318;36.628;-121.932;2023-09-19T09:56:56;11.02;;;3.25;;
82637;SDS011;72318;36.628;-121.932;2023-09-19T10:02:27;12.90;;;4.07;;
82637;SDS011;72318;36.628;-121.932;2023-09-19T10:04:57;11.05;;;3.63;;
82637;SDS011;72318;36.628;-121.932;2023-09-19T10:07:35;13.73;;;4.07;;
82637;SDS011;72318;36.628;-121.932;2023-09-19T10:10:06;14.52;;;4.75;;
82637;SDS011;72318;36.628;-121.932;2023-09-19T10:12:53;19.30;;;5.10;;
82637;SDS011;72318;36.628;-121.932;2023-09-19T10:15:28;21.85;;;5.63;;
82637;SDS011;72318;36.628;-121.932;2023-09-19T10:17:57;29.95;;;6.10;;
82637;SDS011;72318;36.628;-121.932;2023-09-19T10:20:27;22.33;;;5.45;;
82637;SDS011;72318;36.628;-121.932;2023-09-19T10:23:20;23.38;;;6.10;;
82637;SDS011;72318;36.628;-121.932;2023-09-19T10:25:49;27.08;;;6.55;;
82637;SDS011;72318;36.628;-121.932;2023-09-19T10:28:16;24.05;;;6.80;;
82637;SDS011;72318;36.628;-121.932;2023-09-19T10:30:52;24.83;;;5.72;;
82637;SDS011;72318;36.628;-121.932;2023-09-19T10:33:22;24.52;;;6.10;;
82637;SDS011;72318;36.628;-121.932;2023-09-19T10:35:52;25.17;;;6.40;;
82637;SDS011;72318;36.628;-121.932;2023-09-19T10:38:24;20.95;;;5.30;;
82637;SDS011;72318;36.628;-121.932;2023-09-19T10:40:54;20.65;;;5.55;;
82637;SDS011;72318;36.628;-121.932;2023-09-19T10:43:31;16.20;;;5.45;;
82637;SDS011;72318;36.628;-121.932;2023-09-19T10:46:02;27.73;;;6.35;;
82637;SDS011;72318;36.628;-121.932;2023-09-19T10:48:32;20.48;;;5.70;;
82637;SDS011;72318;36.628;-121.932;2023-09-19T10:54:28;21.40;;;5.85;;
82637;SDS011;72318;36.628;-121.932;2023-09-19T10:56:39;17.63;;;4.95;;
82637;SDS011;72318;36.628;-121.932;2023-09-19T10:59:12;17.25;;;4.70;;
82637;SDS011;72318;36.628;-121.932;2023-09-19T11:01:45;22.67;;;5.30;;
82637;SDS011;72318;36.628;-121.932;2023-09-19T11:04:30;14.40;;;5.15;;
82637;SDS011;72318;36.628;-121.932;2023-09-19T11:07:10;12.82;;;4.53;;
82637;SDS011;72318;36.628;-121.932;2023-09-19T11:15:03;16.40;;;4.60;;
82637;SDS011;72318;36.628;-121.932;2023-09-19T11:30:43;12.10;;;6.15;;
82637;SDS011;72318;36.628;-121.932;2023-09-19T11:43:47;8.55;;;3.35;;
82637;SDS011;72318;36.628;-121.932;2023-09-19T11:46:59;14.07;;;5.00;;
82637;SDS011;72318;36.628;-121.932;2023-09-19T11:49:30;15.07;;;4.53;;
82637;SDS011;72318;36.628;-121.932;2023-09-19T11:51:58;12.90;;;4.65;;
82637;SDS011;72318;36.628;-121.932;2023-09-19T11:54:33;19.63;;;7.07;;
82637;SDS011;72318;36.628;-121.932;2023-09-19T11:57:05;10.35;;;5.05;;
82637;SDS011;72318;36.628;-121.932;2023-09-19T11:59:33;19.35;;;6.53;;
82637;SDS011;72318;36.628;-121.932;2023-09-19T12:02:06;17.70;;;5.75;;
82637;SDS011;72318;36.628;-121.932;2023-09-19T12:07:15;17.42;;;6.10;;
82637;SDS011;72318;36.628;-121.932;2023-09-19T12:09:42;15.35;;;5.57;;
82637;SDS011;72318;36.628;-121.932;2023-09-19T12:12:19;19.10;;;5.72;;
82637;SDS011;72318;36.628;-121.932;2023-09-19T12:14:47;15.93;;;5.25;;
82637;SDS011;72318;36.628;-121.932;2023-09-19T12:17:16;13.55;;;5.35;;
82637;SDS011;72318;36.628;-121.932;2023-09-19T12:19:50;15.93;;;5.65;;
82637;SDS011;72318;36.628;-121.932;2023-09-19T12:22:19;12.52;;;6.00;;
82637;SDS011;72318;36.628;-121.932;2023-09-19T12:24:50;16.15;;;5.97;;
82637;SDS011;72318;36.628;-121.932;2023-09-19T12:27:19;13.68;;;4.93;;
82637;SDS011;72318;36.628;-121.932;2023-09-19T12:29:48;15.32;;;5.65;;
82637;SDS011;72318;36.628;-121.932;2023-09-19T12:32:15;22.98;;;8.50;;
82637;SDS011;72318;36.628;-121.932;2023-09-19T12:34:50;16.40;;;5.10;;
82637;SDS011;72318;36.628;-121.932;2023-09-19T12:37:18;12.43;;;6.15;;
82637;SDS011;72318;36.628;-121.932;2023-09-19T12:39:48;13.90;;;5.50;;
82637;SDS011;72318;36.628;-121.932;2023-09-19T12:42:21;11.50;;;5.55;;
82637;SDS011;72318;36.628;-121.932;2023-09-19T12:44:54;17.50;;;5.95;;
82637;SDS011;72318;36.628;-121.932;2023-09-19T12:47:22;13.88;;;6.05;;
82637;SDS011;72318;36.628;-121.932;2023-09-19T12:50:05;20.90;;;6.20;;
82637;SDS011;72318;36.628;-121.932;2023-09-19T12:52:39;35.33;;;8.57;;
82637;SDS011;72318;36.628;-121.932;2023-09-19T12:55:06;14.20;;;7.28;;
82637;SDS011;72318;36.628;-121.932;2023-09-19T12:57:36;16.00;;;6.05;;
82637;SDS011;72318;36.628;-121.932;2023-09-19T13:00:04;36.40;;;8.18;;
82637;SDS011;72318;36.628;-121.932;2023-09-19T13:02:31;23.45;;;7.50;;
82637;SDS011;72318;36.628;-121.932;2023-09-19T13:04:58;26.55;;;8.00;;
82637;SDS011;72318;36.628;-121.932;2023-09-19T13:10:09;180.07;;;14.85;;
82637;SDS011;72318;36.628;-121.932;2023-09-19T13:12:36;127.05;;;13.52;;
82637;SDS011;72318;36.628;-121.932;2023-09-19T13:15:10;101.55;;;13.50;;
82637;SDS011;72318;36.628;-121.932;2023-09-19T13:17:45;25.85;;;8.98;;
82637;SDS011;72318;36.628;-121.932;2023-09-19T13:20:22;41.28;;;9.75;;
82637;SDS011;72318;36.628;-121.932;2023-09-19T13:22:57;22.67;;;8.65;;
82637;SDS011;72318;36.628;-121.932;2023-09-19T13:25:25;29.08;;;8.55;;
82637;SDS011;72318;36.628;-121.932;2023-09-19T13:27:58;18.10;;;8.07;;
82637;SDS011;72318;36.628;-121.932;2023-09-19T13:30:28;17.30;;;7.07;;
82637;SDS011;72318;36.628;-121.932;2023-09-19T13:33:09;26.85;;;9.30;;
82637;SDS011;72318;36.628;-121.932;2023-09-19T13:35:37;26.48;;;9.05;;
82637;SDS011;72318;36.628;-121.932;2023-09-19T13:38:06;23.55;;;8.07;;
82637;SDS011;72318;36.628;-121.932;2023-09-19T13:43:04;16.75;;;7.47;;
82637;SDS011;72318;36.628;-121.932;2023-09-19T13:45:32;17.02;;;6.53;;
82637;SDS011;72318;36.628;-121.932;2023-09-19T13:47:58;44.85;;;7.78;;
82637;SDS011;72318;36.628;-121.932;2023-09-19T13:50:24;17.15;;;7.53;;
82637;SDS011;72318;36.628;-121.932;2023-09-19T13:52:51;38.70;;;8.88;;
82637;SDS011;72318;36.628;-121.932;2023-09-19T13:55:19;56.40;;;10.82;;
82637;SDS011;72318;36.628;-121.932;2023-09-19T13:57:54;37.38;;;9.48;;
82637;SDS011;72318;36.628;-121.932;2023-09-19T14:00:22;29.10;;;9.75;;
82637;SDS011;72318;36.628;-121.932;2023-09-19T14:02:48;20.83;;;9.15;;
82637;SDS011;72318;36.628;-121.932;2023-09-19T14:05:16;31.23;;;7.82;;
82637;SDS011;72318;36.628;-121.932;2023-09-19T14:07:42;68.90;;;9.68;;
82637;SDS011;72318;36.628;-121.932;2023-09-19T14:10:10;32.63;;;7.50;;
82637;SDS011;72318;36.628;-121.932;2023-09-19T14:12:37;91.20;;;10.32;;
82637;SDS011;72318;36.628;-121.932;2023-09-19T14:15:06;21.25;;;8.45;;
82637;SDS011;72318;36.628;-121.932;2023-09-19T14:17:33;42.55;;;10.20;;
82637;SDS011;72318;36.628;-121.932;2023-09-19T14:20:00;77.75;;;9.63;;
82637;SDS011;72318;36.628;-121.932;2023-09-19T14:22:26;86.47;;;11.77;;
82637;SDS011;72318;36.628;-121.932;2023-09-19T14:24:52;26.33;;;7.70;;
82637;SDS011;72318;36.628;-121.932;2023-09-19T14:27:18;55.13;;;9.45;;
82637;SDS011;72318;36.628;-121.932;2023-09-19T14:29:47;25.90;;;7.47;;
82637;SDS011;72318;36.628;-121.932;2023-09-19T14:32:14;52.90;;;8.48;;
82637;SDS011;72318;36.628;-121.932;2023-09-19T14:34:40;62.65;;;10.18;;
82637;SDS011;72318;36.628;-121.932;2023-09-19T14:37:08;92.63;;;12.57;;
82637;SDS011;72318;36.628;-121.932;2023-09-19T14:39:37;58.88;;;9.43;;
82637;SDS011;72318;36.628;-121.932;2023-09-19T14:42:10;112.82;;;12.52;;
82637;SDS011;72318;36.628;-121.932;2023-09-19T14:44:39;137.27;;;10.27;;
82637;SDS011;72318;36.628;-121.932;2023-09-19T14:47:05;39.63;;;6.65;;
82637;SDS011;72318;36.628;-121.932;2023-09-19T14:49:35;97.15;;;7.68;;
82637;SDS011;72318;36.628;-121.932;2023-09-19T14:52:09;47.47;;;6.75;;
82637;SDS011;72318;36.628;-121.932;2023-09-19T14:54:36;118.60;;;9.70;;
82637;SDS011;72318;36.628;-121.932;2023-09-19T14:57:06;71.70;;;6.50;;
82637;SDS011;72318;36.628;-121.932;2023-09-19T14:59:34;32.63;;;4.57;;
82637;SDS011;72318;36.628;-121.932;2023-09-19T15:02:03;42.28;;;4.97;;
82637;SDS011;72318;36.628;-121.932;2023-09-19T15:04:30;80.90;;;7.78;;
82637;SDS011;72318;36.628;-121.932;2023-09-19T15:06:57;109.43;;;8.48;;
82637;SDS011;72318;36.628;-121.932;2023-09-19T15:09:23;147.60;;;10.27;;
82637;SDS011;72318;36.628;-121.932;2023-09-19T15:11:52;62.40;;;6.80;;
82637;SDS011;72318;36.628;-121.932;2023-09-19T15:14:19;31.67;;;7.65;;
82637;SDS011;72318;36.628;-121.932;2023-09-19T15:16:46;39.88;;;8.38;;
82637;SDS011;72318;36.628;-121.932;2023-09-19T15:19:13;15.90;;;7.20;;
82637;SDS011;72318;36.628;-121.932;2023-09-19T15:21:41;14.43;;;7.07;;
82637;SDS011;72318;36.628;-121.932;2023-09-19T15:24:07;18.88;;;7.93;;
82637;SDS011;72318;36.628;-121.932;2023-09-19T15:26:36;25.80;;;8.13;;
82637;SDS011;72318;36.628;-121.932;2023-09-19T15:29:08;19.52;;;8.13;;
82637;SDS011;72318;36.628;-121.932;2023-09-19T15:31:37;12.63;;;5.72;;
82637;SDS011;72318;36.628;-121.932;2023-09-19T15:34:04;17.83;;;6.30;;
82637;SDS011;72318;36.628;-121.932;2023-09-19T15:36:32;13.50;;;6.63;;
82637;SDS011;72318;36.628;-121.932;2023-09-19T15:41:31;25.58;;;6.82;;
82637;SDS011;72318;36.628;-121.932;2023-09-19T15:43:59;24.67;;;7.50;;